sensor_id;sensor_type;location;lat;lon;timestamp;P1;durP1;ratioP1;P2;durP2;ratioP2
47289;SDS011;33197;52.524;13.444;2023-04-01T00:01:49;9.77;;;7.97;;
47289;SDS011;33197;52.524;13.444;2023-04-01T00:04:16;14.30;;;8.52;;
47289;SDS011;33197;52.524;13.444;2023-04-01T00:06:43;14.30;;;8.43;;
47289;SDS011;33197;52.524;13.444;2023-04-01T00:09:11;18.73;;;8.48;;
47289;SDS011;33197;52.524;13.444;2023-04-01T00:11:38;14.10;;;7.50;;
47289;SDS011;33197;52.524;13.444;2023-04-01T00:14:06;14.73;;;8.48;;
47289;SDS011;33197;52.524;13.444;2023-04-01T00:16:34;11.15;;;8.27;;
47289;SDS011;33197;52.524;13.444;2023-04-01T00:19:02;17.67;;;7.80;;
47289;SDS011;33197;52.524;13.444;2023-04-01T00:21:29;16.50;;;7.80;;
47289;SDS011;33197;52.524;13.444;2023-04-01T00:23:57;13.15;;;7.10;;
47289;SDS011;33197;52.524;13.444;2023-04-01T00:26:24;13.15;;;7.97;;
47289;SDS011;33197;52.524;13.444;2023-04-01T00:28:52;11.68;;;7.65;;
47289;SDS011;33197;52.524;13.444;2023-04-01T00:31:19;13.32;;;8.32;;
47289;SDS011;33197;52.524;13.444;2023-04-01T00:33:47;12.10;;;7.63;;
47289;SDS011;33197;52.524;13.444;2023-04-01T00:36:16;17.52;;;7.47;;
47289;SDS011;33197;52.524;13.444;2023-04-01T00:38:45;10.48;;;7.82;;
47289;SDS011;33197;52.524;13.444;2023-04-01T00:41:13;12.20;;;7.43;;
47289;SDS011;33197;52.524;13.444;2023-04-01T00:43:43;15.50;;;7.13;;
47289;SDS011;33197;52.524;13.444;2023-04-01T00:46:11;15.27;;;7.63;;
47289;SDS011;33197;52.524;13.444;2023-04-01T00:48:39;13.88;;;7.55;;
47289;SDS011;33197;52.524;13.444;2023-04-01T00:51:10;12.40;;;7.45;;
47289;SDS011;33197;52.524;13.444;2023-04-01T00:53:41;9.48;;;7.15;;
47289;SDS011;33197;52.524;13.444;2023-04-01T00:56:12;12.23;;;6.82;;
47289;SDS011;33197;52.524;13.444;2023-04-01T00:58:42;11.10;;;7.07;;
47289;SDS011;33197;52.524;13.444;2023-04-01T01:01:11;12.57;;;7.95;;
47289;SDS011;33197;52.524;13.444;2023-04-01T01:03:38;10.85;;;7.10;;
47289;SDS011;33197;52.524;13.444;2023-04-01T01:06:10;11.85;;;5.95;;
47289;SDS011;33197;52.524;13.444;2023-04-01T01:11:41;8.77;;;6.63;;
47289;SDS011;33197;52.524;13.444;2023-04-01T01:14:12;12.05;;;6.88;;
47289;SDS011;33197;52.524;13.444;2023-04-01T01:16:44;15.18;;;7.38;;
47289;SDS011;33197;52.524;13.444;2023-04-01T01:22:09;13.15;;;7.97;;
47289;SDS011;33197;52.524;13.444;2023-04-01T01:27:40;8.82;;;6.57;;
47289;SDS011;33197;52.524;13.444;2023-04-01T01:38:11;10.68;;;7.13;;
47289;SDS011;33197;52.524;13.444;2023-04-01T01:40:42;10.93;;;6.45;;
47289;SDS011;33197;52.524;13.444;2023-04-01T01:43:12;14.43;;;6.82;;
47289;SDS011;33197;52.524;13.444;2023-04-01T01:45:46;11.95;;;8.10;;
47289;SDS011;33197;52.524;13.444;2023-04-01T01:48:16;17.23;;;6.87;;
47289;SDS011;33197;52.524;13.444;2023-04-01T01:50:44;9.00;;;6.45;;
47289;SDS011;33197;52.524;13.444;2023-04-01T01:53:12;14.13;;;7.70;;
47289;SDS011;33197;52.524;13.444;2023-04-01T01:55:41;12.55;;;7.20;;
47289;SDS011;33197;52.524;13.444;2023-04-01T01:58:25;11.15;;;6.03;;
47289;SDS011;33197;52.524;13.444;2023-04-01T02:00:57;10.88;;;6.53;;
47289;SDS011;33197;52.524;13.444;2023-04-01T02:03:27;9.05;;;5.78;;
47289;SDS011;33197;52.524;13.444;2023-04-01T02:05:57;9.63;;;5.65;;
47289;SDS011;33197;52.524;13.444;2023-04-01T02:08:39;9.32;;;6.25;;
47289;SDS011;33197;52.524;13.444;2023-04-01T02:11:10;14.00;;;6.38;;
47289;SDS011;33197;52.524;13.444;2023-04-01T02:16:27;8.95;;;5.72;;
47289;SDS011;33197;52.524;13.444;2023-04-01T02:18:56;9.90;;;6.05;;
47289;SDS011;33197;52.524;13.444;2023-04-01T02:21:27;8.57;;;6.25;;
47289;SDS011;33197;52.524;13.444;2023-04-01T02:23:56;12.70;;;7.45;;
47289;SDS011;33197;52.524;13.444;2023-04-01T02:26:25;9.55;;;5.82;;
47289;SDS011;33197;52.524;13.444;2023-04-01T02:28:53;18.92;;;6.90;;
47289;SDS011;33197;52.524;13.444;2023-04-01T02:31:21;9.70;;;6.28;;
47289;SDS011;33197;52.524;13.444;2023-04-01T02:33:49;8.75;;;5.32;;
47289;SDS011;33197;52.524;13.444;2023-04-01T02:36:16;10.00;;;5.60;;
47289;SDS011;33197;52.524;13.444;2023-04-01T02:38:44;15.20;;;5.45;;
47289;SDS011;33197;52.524;13.444;2023-04-01T02:41:12;12.25;;;6.75;;
47289;SDS011;33197;52.524;13.444;2023-04-01T02:43:39;16.33;;;6.45;;
47289;SDS011;33197;52.524;13.444;2023-04-01T02:46:07;9.95;;;5.88;;
47289;SDS011;33197;52.524;13.444;2023-04-01T02:48:34;31.25;;;6.68;;
47289;SDS011;33197;52.524;13.444;2023-04-01T02:51:01;11.95;;;5.95;;
47289;SDS011;33197;52.524;13.444;2023-04-01T02:53:28;10.98;;;6.10;;
47289;SDS011;33197;52.524;13.444;2023-04-01T02:55:56;8.35;;;5.47;;
47289;SDS011;33197;52.524;13.444;2023-04-01T02:58:23;37.75;;;6.05;;
47289;SDS011;33197;52.524;13.444;2023-04-01T03:00:50;11.70;;;6.53;;
47289;SDS011;33197;52.524;13.444;2023-04-01T03:03:17;10.57;;;5.55;;
47289;SDS011;33197;52.524;13.444;2023-04-01T03:05:45;11.05;;;5.90;;
47289;SDS011;33197;52.524;13.444;2023-04-01T03:08:12;10.35;;;5.55;;
47289;SDS011;33197;52.524;13.444;2023-04-01T03:10:39;14.13;;;6.25;;
47289;SDS011;33197;52.524;13.444;2023-04-01T03:13:07;11.18;;;5.20;;
47289;SDS011;33197;52.524;13.444;2023-04-01T03:15:34;9.13;;;5.13;;
47289;SDS011;33197;52.524;13.444;2023-04-01T03:18:01;7.72;;;5.28;;
47289;SDS011;33197;52.524;13.444;2023-04-01T03:20:30;18.05;;;5.82;;
47289;SDS011;33197;52.524;13.444;2023-04-01T03:22:57;12.38;;;5.38;;
47289;SDS011;33197;52.524;13.444;2023-04-01T03:25:24;8.50;;;4.93;;
47289;SDS011;33197;52.524;13.444;2023-04-01T03:27:51;9.57;;;5.40;;
47289;SDS011;33197;52.524;13.444;2023-04-01T03:30:19;8.23;;;5.47;;
47289;SDS011;33197;52.524;13.444;2023-04-01T03:32:46;14.45;;;5.40;;
47289;SDS011;33197;52.524;13.444;2023-04-01T03:35:13;8.77;;;5.28;;
47289;SDS011;33197;52.524;13.444;2023-04-01T03:37:41;10.85;;;5.45;;
47289;SDS011;33197;52.524;13.444;2023-04-01T03:40:08;7.32;;;5.10;;
47289;SDS011;33197;52.524;13.444;2023-04-01T03:42:37;9.98;;;5.20;;
47289;SDS011;33197;52.524;13.444;2023-04-01T03:45:04;8.82;;;4.57;;
47289;SDS011;33197;52.524;13.444;2023-04-01T03:47:31;6.82;;;5.32;;
47289;SDS011;33197;52.524;13.444;2023-04-01T03:49:59;12.90;;;5.50;;
47289;SDS011;33197;52.524;13.444;2023-04-01T03:52:26;10.18;;;4.78;;
47289;SDS011;33197;52.524;13.444;2023-04-01T03:54:53;11.07;;;5.50;;
47289;SDS011;33197;52.524;13.444;2023-04-01T03:57:21;7.95;;;5.22;;
47289;SDS011;33197;52.524;13.444;2023-04-01T03:59:48;7.78;;;4.65;;
47289;SDS011;33197;52.524;13.444;2023-04-01T04:02:15;11.05;;;5.13;;
47289;SDS011;33197;52.524;13.444;2023-04-01T04:04:42;6.85;;;4.38;;
47289;SDS011;33197;52.524;13.444;2023-04-01T04:07:10;7.78;;;4.70;;
47289;SDS011;33197;52.524;13.444;2023-04-01T04:09:37;7.43;;;4.85;;
47289;SDS011;33197;52.524;13.444;2023-04-01T04:12:04;6.57;;;4.85;;
47289;SDS011;33197;52.524;13.444;2023-04-01T04:14:32;11.98;;;4.97;;
47289;SDS011;33197;52.524;13.444;2023-04-01T04:16:59;8.30;;;5.03;;
47289;SDS011;33197;52.524;13.444;2023-04-01T04:19:26;10.65;;;5.55;;
47289;SDS011;33197;52.524;13.444;2023-04-01T04:21:53;9.18;;;4.85;;
47289;SDS011;33197;52.524;13.444;2023-04-01T04:24:21;10.52;;;5.13;;
47289;SDS011;33197;52.524;13.444;2023-04-01T04:26:48;6.97;;;4.53;;
47289;SDS011;33197;52.524;13.444;2023-04-01T04:29:15;6.32;;;3.95;;
47289;SDS011;33197;52.524;13.444;2023-04-01T04:31:42;11.32;;;4.03;;
47289;SDS011;33197;52.524;13.444;2023-04-01T04:34:10;7.70;;;4.55;;
47289;SDS011;33197;52.524;13.444;2023-04-01T04:36:37;12.15;;;5.53;;
47289;SDS011;33197;52.524;13.444;2023-04-01T04:39:04;5.30;;;3.92;;
47289;SDS011;33197;52.524;13.444;2023-04-01T04:41:31;9.15;;;4.60;;
47289;SDS011;33197;52.524;13.444;2023-04-01T04:44:01;10.00;;;4.63;;
47289;SDS011;33197;52.524;13.444;2023-04-01T04:46:28;13.07;;;4.90;;
47289;SDS011;33197;52.524;13.444;2023-04-01T04:48:55;12.48;;;4.68;;
47289;SDS011;33197;52.524;13.444;2023-04-01T04:51:23;7.95;;;4.50;;
47289;SDS011;33197;52.524;13.444;2023-04-01T04:53:50;8.80;;;4.95;;
47289;SDS011;33197;52.524;13.444;2023-04-01T04:56:19;6.05;;;4.32;;
47289;SDS011;33197;52.524;13.444;2023-04-01T04:58:47;5.45;;;4.18;;
47289;SDS011;33197;52.524;13.444;2023-04-01T05:01:15;8.35;;;4.35;;
47289;SDS011;33197;52.524;13.444;2023-04-01T05:03:43;5.32;;;3.97;;
47289;SDS011;33197;52.524;13.444;2023-04-01T05:06:11;7.97;;;3.78;;
47289;SDS011;33197;52.524;13.444;2023-04-01T05:08:40;7.80;;;4.47;;
47289;SDS011;33197;52.524;13.444;2023-04-01T05:11:12;8.50;;;4.20;;
47289;SDS011;33197;52.524;13.444;2023-04-01T05:13:41;7.40;;;3.67;;
47289;SDS011;33197;52.524;13.444;2023-04-01T05:16:13;6.75;;;4.32;;
47289;SDS011;33197;52.524;13.444;2023-04-01T05:18:42;7.43;;;3.75;;
47289;SDS011;33197;52.524;13.444;2023-04-01T05:21:10;7.85;;;4.63;;
47289;SDS011;33197;52.524;13.444;2023-04-01T05:23:38;9.60;;;4.30;;
47289;SDS011;33197;52.524;13.444;2023-04-01T05:26:06;12.68;;;4.15;;
47289;SDS011;33197;52.524;13.444;2023-04-01T05:28:34;14.68;;;4.40;;
47289;SDS011;33197;52.524;13.444;2023-04-01T05:31:02;15.30;;;4.13;;
47289;SDS011;33197;52.524;13.444;2023-04-01T05:33:30;7.50;;;4.20;;
47289;SDS011;33197;52.524;13.444;2023-04-01T05:36:05;6.43;;;3.65;;
47289;SDS011;33197;52.524;13.444;2023-04-01T05:38:33;7.22;;;4.30;;
47289;SDS011;33197;52.524;13.444;2023-04-01T05:41:01;9.00;;;4.60;;
47289;SDS011;33197;52.524;13.444;2023-04-01T05:43:29;7.70;;;4.50;;
47289;SDS011;33197;52.524;13.444;2023-04-01T05:45:57;8.43;;;4.32;;
47289;SDS011;33197;52.524;13.444;2023-04-01T05:48:24;16.45;;;4.93;;
47289;SDS011;33197;52.524;13.444;2023-04-01T05:50:51;8.80;;;4.50;;
47289;SDS011;33197;52.524;13.444;2023-04-01T05:53:19;7.88;;;3.72;;
47289;SDS011;33197;52.524;13.444;2023-04-01T05:55:46;13.93;;;4.20;;
47289;SDS011;33197;52.524;13.444;2023-04-01T05:58:13;8.20;;;4.50;;
47289;SDS011;33197;52.524;13.444;2023-04-01T06:00:40;8.75;;;4.30;;
47289;SDS011;33197;52.524;13.444;2023-04-01T06:03:07;7.28;;;4.45;;
